• Join FlightAware (Why Join?)
  • Login
  • US Flag 
05:01PM EDT


 

Airport Tracker/Info


-or-


 

Live Flight TrackerFlight Track Log ✈ KFS73 ✈ 24-Apr-2013 ✈ KLUK - KYIP

Flight Track Log - Related Links

Times and Time Zones

All times are in EDT time to prevent confusion due to time zone crossing. See the KFS73 flight status page for this flight to view local times or setup timezone preferences in your user account.

Time Position Orientation Groundspeed Altitude Reporting Facility
EDT Latitude Longitude Course Direction KTS MPH feet Rate Location/Type
01:38PM 39.0167 -84.3667 128° Southeast 271 312 2,600  Level Cincinnati TRACON
01:39PM 39.0169 -84.2967 90° East 248 285 3,200 1,080 Climbing Indianapolis Center
01:40PM 39.0294 -84.2092 80° East 254 292 4,800 2,280 Climbing Indianapolis Center
01:41PM 39.1017 -84.1822 16° North 268 308 8,000 3,120 Climbing Indianapolis Center
01:42PM 39.1758 -84.2092 344° North 274 315 11,300 3,000 Climbing Indianapolis Center
01:43PM 39.2783 -84.2200 355° North 309 356 14,200 2,160 Climbing Indianapolis Center
01:44PM 39.3686 -84.2425 349° North 328 377 15,800 1,500 Climbing Indianapolis Center
01:45PM 39.4636 -84.2714 347° North 345 397 17,400 1,500 Climbing Indianapolis Center
01:46PM 39.5644 -84.2936 350° North 359 413 18,900 780 Climbing Indianapolis Center
01:47PM 39.6756 -84.3203 350° North 390 449 19,000  Climbing Indianapolis Center
01:48PM 39.7950 -84.3467 350° North 423 487 19,000  Level Indianapolis Center
01:49PM 39.9169 -84.3744 350° North 434 499 19,000  Level Indianapolis Center
01:50PM 40.0411 -84.3986 352° North 444 511 19,000  Level Indianapolis Center
01:51PM 40.1706 -84.4000 360° North 455 524 19,100 -240 Climbing Indianapolis Center
01:52PM 40.2878 -84.4025 359° North 423 487 18,600 -900 Descending Indianapolis Center
01:53PM 40.4169 -84.4069 358° North 397 457 17,300 -780 Descending Indianapolis Center
01:54PM 40.5217 -84.4089 359° North 378 435 17,000 -180 Descending Indianapolis Center
01:56PM 40.6781 -84.4164 358° North 359 413 16,900 -60 Descending Cleveland Center
01:56PM 40.7264 -84.4144 North 366 421 16,900 60 Level Indianapolis Center
01:57PM 40.8331 -84.4158 359° North 377 434 17,000 60 Climbing Indianapolis Center
01:58PM 40.8781 -84.4225 354° North 368 423 17,000  Level Cleveland Center
01:59PM 40.9822 -84.4258 359° North 368 423 17,000  Level Cleveland Center
02:00PM 41.0864 -84.4267 360° North 368 423 17,000 -600 Level Cleveland Center
02:01PM 41.1969 -84.4275 360° North 374 430 15,800 -1,140 Descending Cleveland Center
02:02PM 41.3114 -84.4344 357° North 391 450 14,800 -960 Descending Cleveland Center
02:03PM 41.4136 -84.4347 360° North 386 444 13,900 -1,200 Descending Cleveland Center
02:04PM 41.5136 -84.4381 359° North 366 421 12,400 -1,440 Descending Cleveland Center
02:05PM 41.6050 -84.4436 357° North 346 398 11,100 -1,140 Descending Cleveland Center
02:06PM 41.6908 -84.4403 North 323 372 10,200 -600 Descending Cleveland Center
02:07PM 41.7572 -84.3803 34° Northeast 283 326 10,000 -120 Descending Cleveland Center
02:08PM 41.8158 -84.3169 39° Northeast 274 315 10,000  Level Cleveland Center
02:08PM 41.8828 -84.2425 40° Northeast 323 372 10,000 60 Level Cleveland Center
02:09PM 41.9325 -84.1897 38° Northeast 320 368 10,100 60 Climbing Cleveland Center
02:10PM 41.9542 -84.1628 43° Northeast 300 345 10,100 -120 Level Cleveland Center
02:10PM 41.9931 -84.1175 41° Northeast 298 343 10,000 -420 Descending Cleveland Center
02:11PM 42.0581 -84.0372 43° Northeast 294 338 9,400 -1,620 Descending Cleveland Center
02:13PM 42.0881 -83.8681 77° East 286 329 5,900 -2,100 Descending FAA TRACON SMA TRACON (SMA)
02:13PM 42.0886 -83.8383 89° East 268 308 5,500 -1,200 Descending FAA TRACON SMA TRACON (SMA)
02:13PM 42.0903 -83.8033 86° East 247 284 5,100 -1,320 Descending FAA TRACON SMA TRACON (SMA)
02:14PM 42.0922 -83.7775 84° East 227 261 4,600 -1,620 Descending FAA TRACON SMA TRACON (SMA)
02:14PM 42.1003 -83.7536 66° East 236 272 4,000 -1,500 Descending FAA TRACON SMA TRACON (SMA)
02:14PM 42.1100 -83.7269 64° Northeast 210 242 3,600 -1,200 Descending FAA TRACON SMA TRACON (SMA)
02:15PM 42.1183 -83.7067 61° Northeast 204 235 3,200 -960 Descending FAA TRACON SMA TRACON (SMA)
02:15PM 42.1283 -83.6889 53° Northeast 203 234 3,000 -360 Descending FAA TRACON SMA TRACON (SMA)
02:15PM 42.1389 -83.6711 51° Northeast 165 190 3,000  Level FAA TRACON SMA TRACON (SMA)
02:16PM 42.1475 -83.6572 50° Northeast 159 183 3,000  Level FAA TRACON SMA TRACON (SMA)
02:16PM 42.1547 -83.6442 53° Northeast 146 168 3,000 -300 Level FAA TRACON SMA TRACON (SMA)
02:16PM 42.1642 -83.6300 48° Northeast 140 161 2,800 -300 Descending FAA TRACON SMA TRACON (SMA)
02:17PM 42.1731 -83.6206 38° Northeast 141 162 2,800 -480 Level FAA TRACON SMA TRACON (SMA)
02:17PM 42.1814 -83.6092 45° Northeast 141 162 2,500 -1,080 Descending FAA TRACON SMA TRACON (SMA)
02:17PM 42.1894 -83.5969 48° Northeast 142 163 2,100 -1,260 Descending FAA TRACON SMA TRACON (SMA)
02:18PM 42.2000 -83.5828 45° Northeast 139 160 1,700 -900 Descending FAA TRACON SMA TRACON (SMA)
02:18PM 42.2075 -83.5719 47° Northeast 128 147 1,500 -600 Descending FAA TRACON SMA TRACON (SMA)
02:18PM 42.2147 -83.5608 49° Northeast 130 150 1,300 -780 Descending FAA TRACON SMA TRACON (SMA)
02:19PM 42.2244 -83.5467 47° Northeast 132 152 1,000 -600 Descending FAA TRACON SMA TRACON (SMA)
02:19PM 42.2283 -83.5411 47° Northeast 132 152 900 -120 Descending FAA TRACON SMA TRACON (SMA)
02:20PM 42.2283 -83.5411 346° North 132 152 900  Level FAA TRACON SMA TRACON (SMA)